Pagina principale
METAR-TAF:

METAR-TAF

Aeroporti :

Aeroporto Internazionale di Keflavík

Keflavík, Islanda

latitudine: 63-58N, longitudine: 022-36W, altezza: 52 m

Osservazione

Il bollettino è stato emesso 27 minuti fa, alle 05:30 UTC
Vento 8 kt da est/nord-est
Temperature -3°C
Umidità 86%
Pressione 987 hPa
Visibilità 10 km o più
nessuna nube inferiore a 1500 m e nessun cumulonembo

METAR: BIKF 290530Z 06008KT CAVOK M03/M05 Q0987 R01/950053

Ora: 05:57 (05:57 UTC)

Previsione

Il bollettino è stato emesso 1 ora e 6 minuti fa, alle 04:51 UTC
Previsione valida dal 29 alle 06 UTC al 30 alle 06 UTC
Vento 8 kt da est/nord-est
Visibilità 10 km o più
nessuna nube inferiore a 1500 m e nessun cumulonembo
Evoluzione graduale
dal 30 alle 04 UTC al 30 alle 06 UTC
Vento 18 kt da nord/nord-est

TAF: BIKF 290451Z 2906/3006 06008KT CAVOK TXM01/2915Z TNM05/3003Z BECMG 3004/3006 02018KT

Osservazioni e previsioni meteorologiche di più di 4000 aeroporti (messaggi METAR e TAF).

Le stazioni disponibili sono rappresentate dai dischi gialli e rossi sulla carta.

Puntare il mouse per vedere il nome della stazione.

Clicca sopra per visualizzare le osservazioni e previsioni meteorologiche.

Per cambiare la mappa : fare clic sui pulsanti verdi con una croce nera per ingrandire, il pulsante verde con un trattino per diminuire, o sulla freccia verde per le mappe adiacenti.


METAR-TAF: